createdAt,value
2018-12-08T00:02:25.233Z,99238.843
2018-12-08T00:05:53.104Z,99253.351
2018-12-08T00:09:21.050Z,99285.015
2018-12-08T00:12:48.913Z,99254.781
2018-12-08T00:16:16.780Z,99279.593
2018-12-08T00:19:44.652Z,99289.96
2018-12-08T00:23:12.512Z,99320.062
2018-12-08T00:26:40.382Z,99322.468
2018-12-08T00:30:08.264Z,99325
2018-12-08T00:33:36.125Z,99309.64
2018-12-08T00:37:04.001Z,99317.187
2018-12-08T00:40:31.868Z,99333.546
2018-12-08T00:44:00.733Z,99339.39
2018-12-08T00:47:28.595Z,99334.007
2018-12-08T00:50:56.466Z,99335.007
2018-12-08T00:54:24.343Z,99340.875
2018-12-08T00:57:52.198Z,99347.406
2018-12-08T01:01:20.652Z,99363.406
2018-12-08T01:04:49.574Z,99389.046
2018-12-08T01:08:17.452Z,99390.546
2018-12-08T01:11:45.322Z,99389.062
2018-12-08T01:15:13.209Z,99378.656
2018-12-08T01:18:41.065Z,99398.328
2018-12-08T01:22:08.938Z,99416.984
2018-12-08T01:25:36.817Z,99385.328
2018-12-08T01:29:04.668Z,99405.453
2018-12-08T01:32:32.544Z,99414.234
2018-12-08T01:36:00.421Z,99429.843
2018-12-08T01:39:28.280Z,99436.937
2018-12-08T01:42:56.150Z,99436.078
2018-12-08T01:46:25.010Z,99430.046
2018-12-08T01:49:52.875Z,99441.906
2018-12-08T01:53:20.748Z,99445.523
2018-12-08T01:56:49.619Z,99449.312
2018-12-08T02:00:17.476Z,99455.328
2018-12-08T02:03:45.362Z,99460.25
2018-12-08T02:07:13.231Z,99474.625
2018-12-08T02:10:41.098Z,99463.929
2018-12-08T02:14:08.953Z,99466.25
2018-12-08T02:17:37.817Z,99462.406
2018-12-08T02:21:06.678Z,99462.968
2018-12-08T02:24:34.530Z,99493.187
2018-12-08T02:28:02.405Z,99502.765
2018-12-08T02:31:30.271Z,99496.781
2018-12-08T02:34:58.127Z,99516.625
2018-12-08T02:38:26.007Z,99525.062
2018-12-08T02:41:53.884Z,99509.312
2018-12-08T02:45:21.741Z,99522.164
2018-12-08T02:48:49.620Z,99518.07
2018-12-08T02:52:17.496Z,99518.07
2018-12-08T02:55:45.362Z,99513.406
2018-12-08T02:59:13.219Z,99512.281
2018-12-08T03:02:41.096Z,99512.343
2018-12-08T03:06:08.974Z,99499.179
2018-12-08T03:09:36.834Z,99505.328
2018-12-08T03:13:04.703Z,99516
2018-12-08T03:16:32.581Z,99523.468
2018-12-08T03:20:00.440Z,99519.773
2018-12-08T03:23:28.318Z,99530.39
2018-12-08T03:26:56.190Z,99524.218
2018-12-08T03:30:24.053Z,99527.601
2018-12-08T03:33:51.925Z,99523.312
2018-12-08T03:37:19.798Z,99526.328
2018-12-08T03:40:47.650Z,99536.531
2018-12-08T03:44:15.521Z,99534.078
2018-12-08T03:47:44.390Z,99537.242
2018-12-08T03:51:12.278Z,99566.921
2018-12-08T03:54:40.299Z,99550.656
2018-12-08T03:58:08.009Z,99545.578
2018-12-08T04:01:35.886Z,99564.14
2018-12-08T04:05:03.744Z,99550.515
2018-12-08T04:08:31.617Z,99556.921
2018-12-08T04:11:59.489Z,99551.164
2018-12-08T04:15:27.351Z,99551.312
2018-12-08T04:18:55.228Z,99551.875
2018-12-08T04:22:23.097Z,99554.703
2018-12-08T04:25:50.956Z,99569.953
2018-12-08T04:29:18.918Z,99571.546
2018-12-08T04:32:46.952Z,99575.625
2018-12-08T04:36:14.814Z,99568.14
2018-12-08T04:39:42.679Z,99565.89
2018-12-08T04:43:10.557Z,99565.89
2018-12-08T04:46:38.422Z,99574.375
2018-12-08T04:50:06.364Z,99588.289
2018-12-08T04:53:34.239Z,99592.671
2018-12-08T04:57:02.115Z,99591.023
2018-12-08T05:00:30.964Z,99584.093
2018-12-08T05:03:59.844Z,99589.171
2018-12-08T05:07:27.723Z,99579.031
2018-12-08T05:10:55.596Z,99584.476
2018-12-08T05:14:23.457Z,99579.117
2018-12-08T05:17:51.327Z,99587.914
2018-12-08T05:21:19.199Z,99590.093
2018-12-08T05:24:47.054Z,99589.937
2018-12-08T05:28:14.927Z,99588.515
2018-12-08T05:31:42.805Z,99596.328
2018-12-08T05:35:10.667Z,99585.101
2018-12-08T05:38:38.550Z,99585.984
2018-12-08T05:42:06.423Z,99593.117
2018-12-08T05:45:34.285Z,99598.109
2018-12-08T05:49:02.167Z,99587.531
2018-12-08T05:52:30.038Z,99591.828
2018-12-08T05:55:58.903Z,99591.617
2018-12-08T05:59:26.759Z,99601.906
2018-12-08T06:02:54.644Z,99600.468
2018-12-08T06:06:22.516Z,99601.734
2018-12-08T06:09:50.377Z,99610.328
2018-12-08T06:13:19.237Z,99619.796
2018-12-08T06:16:47.109Z,99617.57
2018-12-08T06:20:14.963Z,99612.32
2018-12-08T06:23:42.838Z,99604.89
2018-12-08T06:27:10.716Z,99599.578
2018-12-08T06:30:38.691Z,99603.296
2018-12-08T06:34:06.551Z,99597.312
2018-12-08T06:37:34.601Z,99600.523
2018-12-08T06:41:02.492Z,99610.968
2018-12-08T06:44:30.350Z,99596.125
2018-12-08T06:47:58.226Z,99600.304
2018-12-08T06:51:26.193Z,99606.14
2018-12-08T06:54:54.138Z,99618.671
2018-12-08T06:58:22.017Z,99612.578
2018-12-08T07:01:50.832Z,99597.578
2018-12-08T07:05:18.696Z,99591.218
2018-12-08T07:08:46.573Z,99588.796
2018-12-08T07:12:14.568Z,99585.187
2018-12-08T07:15:42.509Z,99597.953
2018-12-08T07:19:10.441Z,99582.015
2018-12-08T07:22:38.372Z,99574.343
2018-12-08T07:26:06.252Z,99575.375
2018-12-08T07:29:34.137Z,99554.289
2018-12-08T07:33:02.051Z,99558.695
2018-12-08T07:36:31.250Z,99559.992
2018-12-08T07:39:59.912Z,99561
2018-12-08T07:43:27.811Z,99542.898
2018-12-08T07:46:55.801Z,99545.546
2018-12-08T07:50:23.744Z,99550.375
2018-12-08T07:53:51.615Z,99553.343
2018-12-08T07:57:19.475Z,99540.468
2018-12-08T08:00:47.356Z,99536.398
2018-12-08T08:04:15.232Z,99550.031
2018-12-08T08:07:43.112Z,99566.39
2018-12-08T08:11:10.972Z,99551.968
2018-12-08T08:14:38.845Z,99558.468
2018-12-08T08:18:06.717Z,99554.765
2018-12-08T08:21:34.591Z,99577.609
2018-12-08T08:25:02.468Z,99553.89
2018-12-08T08:28:30.344Z,99549.078
2018-12-08T08:31:59.204Z,99542.742
2018-12-08T08:35:27.102Z,99527.812
2018-12-08T08:38:54.984Z,99527.25
2018-12-08T08:42:22.846Z,99512.625
2018-12-08T08:45:50.723Z,99505.343
2018-12-08T08:49:18.596Z,99485.039
2018-12-08T08:52:47.460Z,99480.89
2018-12-08T08:56:15.317Z,99475.429
2018-12-08T08:59:43.201Z,99470.031
2018-12-08T09:03:11.164Z,99465.531
2018-12-08T09:06:39.092Z,99457.046
2018-12-08T09:10:07.060Z,99453.562
2018-12-08T09:13:34.946Z,99458.687
2018-12-08T09:17:03.457Z,99445.304
2018-12-08T09:20:31.442Z,99448.328
2018-12-08T09:24:00.317Z,99448.781
2018-12-08T09:27:28.269Z,99450.203
2018-12-08T09:30:57.164Z,99450.421
2018-12-08T09:34:25.056Z,99451.664
2018-12-08T09:37:52.968Z,99443.921
2018-12-08T09:41:20.852Z,99448.062
2018-12-08T09:44:48.752Z,99437.75
2018-12-08T09:48:16.666Z,99455.625
2018-12-08T09:51:44.597Z,99421.421
2018-12-08T09:55:12.492Z,99407.296
2018-12-08T09:58:42.347Z,99405.234
2018-12-08T10:02:10.246Z,99402.109
2018-12-08T10:05:39.125Z,99401.351
2018-12-08T10:09:07.018Z,99385.468
2018-12-08T10:12:35.005Z,99391.625
2018-12-08T10:16:02.796Z,99381.273
2018-12-08T10:19:31.665Z,99377.531
2018-12-08T10:22:59.559Z,99381.32
2018-12-08T10:26:27.463Z,99376.968
2018-12-08T10:29:56.320Z,99371.64
2018-12-08T10:33:24.253Z,99370.257
2018-12-08T10:36:53.140Z,99369.359
2018-12-08T10:40:22.700Z,99380.492
2018-12-08T10:43:50.577Z,99392.875
2018-12-08T10:47:20.547Z,99363.484
2018-12-08T10:50:48.482Z,99370.328
2018-12-08T10:54:16.356Z,99359.398
2018-12-08T10:57:44.267Z,99353.734
2018-12-08T11:01:12.157Z,99348.046
2018-12-08T11:04:40.140Z,99355.757
2018-12-08T11:08:08.642Z,99351.062
2018-12-08T11:11:36.523Z,99334.21
2018-12-08T11:15:04.379Z,99341.625
2018-12-08T11:18:32.261Z,99331.437
2018-12-08T11:22:00.140Z,99325.546
2018-12-08T11:25:27.993Z,99319.828
2018-12-08T11:28:55.871Z,99310.812
2018-12-08T11:32:23.759Z,99314.492
2018-12-08T11:35:51.654Z,99308.906
2018-12-08T11:39:19.520Z,99305.093
2018-12-08T11:42:47.402Z,99313.546
2018-12-08T11:46:16.258Z,99300.859
2018-12-08T11:49:45.120Z,99295.437
2018-12-08T11:53:13.108Z,99297.382
2018-12-08T11:56:40.994Z,99280.539
2018-12-08T12:00:08.857Z,99274.718
2018-12-08T12:03:36.730Z,99274.953
2018-12-08T12:07:06.786Z,99282.109
2018-12-08T12:10:34.643Z,99280.312
2018-12-08T12:14:02.521Z,99266.734
2018-12-08T12:17:30.420Z,99269.671
2018-12-08T12:20:58.909Z,99270.609
2018-12-08T12:24:29.282Z,99267.343
2018-12-08T12:27:57.164Z,99262.171
2018-12-08T12:31:25.047Z,99265.453
2018-12-08T12:34:54.886Z,99261.171
2018-12-08T12:38:22.761Z,99261.031
2018-12-08T12:41:50.642Z,99247.203
2018-12-08T12:45:18.502Z,99248.328
2018-12-08T12:48:46.383Z,99239.562
2018-12-08T12:52:14.302Z,99239.593
2018-12-08T12:55:42.133Z,99233.757
2018-12-08T12:59:09.994Z,99245.468
2018-12-08T13:02:37.865Z,99237.734
2018-12-08T13:06:05.761Z,99218.273
2018-12-08T13:09:33.699Z,99226.875
2018-12-08T13:13:01.576Z,99221.484
2018-12-08T13:16:29.467Z,99204.625
2018-12-08T13:19:57.322Z,99216.554
2018-12-08T13:23:25.197Z,99196.375
2018-12-08T13:26:53.077Z,99209.812
2018-12-08T13:30:22.924Z,99202.328
2018-12-08T13:33:50.797Z,99194.757
2018-12-08T13:37:18.670Z,99194.687
2018-12-08T13:40:46.539Z,99192.687
2018-12-08T13:44:14.421Z,99192.234
2018-12-08T13:47:42.438Z,99181.398
2018-12-08T13:51:11.666Z,99184.539
2018-12-08T13:54:41.483Z,99185.859
2018-12-08T13:58:08.912Z,99189.703
2018-12-08T14:01:36.925Z,99191.125
2018-12-08T14:05:05.068Z,99179.132
2018-12-08T14:08:33.095Z,99172.937
2018-12-08T14:12:00.962Z,99177.062
2018-12-08T14:15:29.893Z,99166.656
2018-12-08T14:18:57.943Z,99168.187
2018-12-08T14:22:26.030Z,99163.875
2018-12-08T14:25:54.097Z,99154.406
2018-12-08T14:29:22.243Z,99158.687
2018-12-08T14:32:50.374Z,99158.015
2018-12-08T14:36:18.453Z,99153.89
2018-12-08T14:39:46.575Z,99171.359
2018-12-08T14:43:14.570Z,99160.625
2018-12-08T14:46:42.657Z,99145.078
2018-12-08T14:50:11.644Z,99157.343
2018-12-08T14:53:39.625Z,99161.531
2018-12-08T14:57:08.079Z,99146.39
2018-12-08T15:00:37.136Z,99146.328
2018-12-08T15:04:05.243Z,99127.906
2018-12-08T15:07:33.218Z,99141.937
2018-12-08T15:11:01.217Z,99131.765
2018-12-08T15:14:30.305Z,99147.843
2018-12-08T15:17:58.353Z,99157.375
2018-12-08T15:21:26.281Z,99132.468
2018-12-08T15:24:54.332Z,99121.781
2018-12-08T15:28:22.436Z,99127.5
2018-12-08T15:31:50.434Z,99114.781
2018-12-08T15:35:18.471Z,99119.335
2018-12-08T15:38:46.674Z,99112.625
2018-12-08T15:42:15.715Z,99112.343
2018-12-08T15:45:43.585Z,99111.703
2018-12-08T15:49:11.464Z,99114.171
2018-12-08T15:52:41.318Z,99104.484
2018-12-08T15:56:10.178Z,99109.578
2018-12-08T15:59:38.074Z,99102.484
2018-12-08T16:03:06.027Z,99100.093
2018-12-08T16:06:34.872Z,99096.226
2018-12-08T16:10:04.104Z,99103.015
2018-12-08T16:13:32.962Z,99094.5
2018-12-08T16:17:00.833Z,99089.031
2018-12-08T16:20:28.714Z,99080.812
2018-12-08T16:23:56.580Z,99084.187
2018-12-08T16:27:24.458Z,99076.812
2018-12-08T16:30:52.332Z,99066.656
2018-12-08T16:34:20.201Z,99057.351
2018-12-08T16:37:48.098Z,99055.406
2018-12-08T16:41:19.947Z,99072.195
2018-12-08T16:44:47.822Z,99054.187
2018-12-08T16:48:15.700Z,99053.062
2018-12-08T16:51:43.573Z,99057.976
2018-12-08T16:55:11.564Z,99059.609
2018-12-08T16:58:39.436Z,99052.531
2018-12-08T17:02:07.335Z,99052.492
2018-12-08T17:05:35.213Z,99048.132
2018-12-08T17:09:03.812Z,99034.32
2018-12-08T17:12:31.699Z,99033.609
2018-12-08T17:15:59.580Z,99035.703
2018-12-08T17:19:27.444Z,99033.281
2018-12-08T17:22:55.325Z,99039.953
2018-12-08T17:26:23.234Z,99031.468
2018-12-08T17:29:51.110Z,99030.804
2018-12-08T17:33:19.992Z,99041.5
2018-12-08T17:36:47.870Z,99027.937
2018-12-08T17:40:15.740Z,99019.406
2018-12-08T17:43:43.622Z,99016.265
2018-12-08T17:47:11.506Z,99015.546
2018-12-08T17:50:39.368Z,99023.82
2018-12-08T17:54:07.258Z,99033.32
2018-12-08T17:57:36.129Z,99023.171
2018-12-08T18:01:04.056Z,99027.609
2018-12-08T18:04:31.917Z,99019.453
2018-12-08T18:07:59.806Z,99010.523
2018-12-08T18:11:27.679Z,99033.171
2018-12-08T18:14:55.541Z,99005.703
2018-12-08T18:18:23.428Z,99007.953
2018-12-08T18:21:51.345Z,99018.453
2018-12-08T18:25:19.246Z,99006.062
2018-12-08T18:28:48.111Z,99003.109
2018-12-08T18:32:15.990Z,98991.765
2018-12-08T18:35:44.846Z,99013.39
2018-12-08T18:39:12.727Z,98996.937
2018-12-08T18:42:41.677Z,98998.062
2018-12-08T18:46:09.549Z,99005.734
2018-12-08T18:49:37.420Z,99010.867
2018-12-08T18:53:06.286Z,99005.343
2018-12-08T18:56:35.156Z,99013.117
2018-12-08T19:00:03.015Z,99003.906
2018-12-08T19:03:30.900Z,98998.968
2018-12-08T19:06:58.774Z,99011.281
2018-12-08T19:10:26.630Z,99009.531
2018-12-08T19:13:54.520Z,99003.171
2018-12-08T19:17:22.402Z,99007
2018-12-08T19:20:50.276Z,98995.921
2018-12-08T19:24:18.149Z,98998.984
2018-12-08T19:27:46.027Z,98992.984
2018-12-08T19:31:13.899Z,99003.164
2018-12-08T19:34:42.758Z,99002.562
2018-12-08T19:38:10.625Z,99000.289
2018-12-08T19:41:39.499Z,98983.921
2018-12-08T19:45:07.352Z,98992.5
2018-12-08T19:48:35.239Z,98981.578
2018-12-08T19:52:03.117Z,98997.156
2018-12-08T19:55:31.007Z,98975.726
2018-12-08T19:58:59.001Z,98980.437
2018-12-08T20:02:28.097Z,98985.265
2018-12-08T20:05:56.240Z,98992.625
2018-12-08T20:09:24.394Z,98973.75
2018-12-08T20:12:52.706Z,98975.359
2018-12-08T20:16:21.081Z,98999.195
2018-12-08T20:19:49.360Z,98975.093
2018-12-08T20:23:17.648Z,98976.937
2018-12-08T20:26:46.245Z,98979.812
2018-12-08T20:30:16.042Z,98977.234
2018-12-08T20:33:45.280Z,98979.437
2018-12-08T20:37:14.349Z,98961.5
2018-12-08T20:40:42.719Z,98976.632
2018-12-08T20:44:12.163Z,98956.906
2018-12-08T20:47:40.411Z,98961.609
2018-12-08T20:51:08.670Z,98951.875
2018-12-08T20:54:37.912Z,98951.015
2018-12-08T20:58:06.971Z,98954.054
2018-12-08T21:01:35.179Z,98942.96
2018-12-08T21:05:03.518Z,98938.625
2018-12-08T21:08:31.775Z,98949.578
2018-12-08T21:12:00.939Z,98922.132
2018-12-08T21:15:29.960Z,98919.921
2018-12-08T21:18:59.413Z,98919.421
2018-12-08T21:22:27.549Z,98914.796
2018-12-08T21:25:56.847Z,98901.453
2018-12-08T21:29:24.989Z,98900.171
2018-12-08T21:32:52.862Z,98903.468
2018-12-08T21:36:20.982Z,98903.234
2018-12-08T21:39:48.908Z,98911.218
2018-12-08T21:43:16.794Z,98928.218
2018-12-08T21:46:44.664Z,98898.015
2018-12-08T21:50:12.631Z,98883.851
2018-12-08T21:53:41.784Z,98874.476
2018-12-08T21:57:09.666Z,98860.468
2018-12-08T22:00:37.542Z,98866.406
2018-12-08T22:04:05.405Z,98855.187
2018-12-08T22:07:33.279Z,98859.382
2018-12-08T22:11:01.151Z,98848.562
2018-12-08T22:14:29.011Z,98842.875
2018-12-08T22:17:56.889Z,98852.601
2018-12-08T22:21:24.763Z,98841.64
2018-12-08T22:24:52.623Z,98845.859
2018-12-08T22:28:20.499Z,98833.046
2018-12-08T22:31:48.368Z,98828.671
2018-12-08T22:35:16.220Z,98835.078
2018-12-08T22:38:44.101Z,98828.531
2018-12-08T22:42:12.969Z,98827.14
2018-12-08T22:45:40.845Z,98825.265
2018-12-08T22:49:08.702Z,98823.75
2018-12-08T22:52:36.587Z,98818.765
2018-12-08T22:56:04.466Z,98816.671
2018-12-08T22:59:32.324Z,98815.562
2018-12-08T23:03:01.198Z,98813.031
2018-12-08T23:06:29.072Z,98803.296
2018-12-08T23:09:57.007Z,98797.671
2018-12-08T23:13:24.882Z,98783.296
2018-12-08T23:16:52.754Z,98783.703
2018-12-08T23:20:20.629Z,98780.257
2018-12-08T23:23:49.479Z,98781.015
2018-12-08T23:27:17.350Z,98768.359
2018-12-08T23:30:45.222Z,98759.101
2018-12-08T23:34:14.074Z,98761.812
2018-12-08T23:37:41.932Z,98743.921
2018-12-08T23:41:09.806Z,98740.875
2018-12-08T23:44:37.667Z,98730.71
2018-12-08T23:48:05.540Z,98713.671
2018-12-08T23:51:33.419Z,98703.171
2018-12-08T23:55:01.271Z,98700.656
2018-12-08T23:58:29.146Z,98690.343
